sensor_id;sensor_type;location;lat;lon;timestamp;P1;durP1;ratioP1;P2;durP2;ratioP2
72895;SDS011;61036;53.224;6.554;2023-01-24T00:00:37;19.20;;;13.03;;
72895;SDS011;61036;53.224;6.554;2023-01-24T00:03:03;20.20;;;14.03;;
72895;SDS011;61036;53.224;6.554;2023-01-24T00:05:28;20.40;;;12.73;;
72895;SDS011;61036;53.224;6.554;2023-01-24T00:07:54;18.50;;;13.10;;
72895;SDS011;61036;53.224;6.554;2023-01-24T00:10:19;19.17;;;13.60;;
72895;SDS011;61036;53.224;6.554;2023-01-24T00:12:45;20.97;;;13.97;;
72895;SDS011;61036;53.224;6.554;2023-01-24T00:15:11;20.50;;;14.50;;
72895;SDS011;61036;53.224;6.554;2023-01-24T00:17:40;21.53;;;13.50;;
72895;SDS011;61036;53.224;6.554;2023-01-24T00:20:06;21.20;;;14.27;;
72895;SDS011;61036;53.224;6.554;2023-01-24T00:22:33;23.63;;;15.23;;
72895;SDS011;61036;53.224;6.554;2023-01-24T00:25:01;20.40;;;13.07;;
72895;SDS011;61036;53.224;6.554;2023-01-24T00:27:27;21.17;;;13.97;;
72895;SDS011;61036;53.224;6.554;2023-01-24T00:29:55;21.97;;;14.60;;
72895;SDS011;61036;53.224;6.554;2023-01-24T00:32:20;22.17;;;14.40;;
72895;SDS011;61036;53.224;6.554;2023-01-24T00:34:47;23.13;;;15.90;;
72895;SDS011;61036;53.224;6.554;2023-01-24T00:37:13;22.70;;;14.40;;
72895;SDS011;61036;53.224;6.554;2023-01-24T00:39:39;22.07;;;15.57;;
72895;SDS011;61036;53.224;6.554;2023-01-24T00:42:05;22.13;;;14.27;;
72895;SDS011;61036;53.224;6.554;2023-01-24T00:44:32;23.30;;;14.47;;
72895;SDS011;61036;53.224;6.554;2023-01-24T00:46:57;23.83;;;15.13;;
72895;SDS011;61036;53.224;6.554;2023-01-24T00:49:23;22.47;;;14.73;;
72895;SDS011;61036;53.224;6.554;2023-01-24T00:51:49;22.33;;;14.73;;
72895;SDS011;61036;53.224;6.554;2023-01-24T01:00:34;24.00;;;16.00;;
72895;SDS011;61036;53.224;6.554;2023-01-24T01:03:02;22.80;;;15.67;;
72895;SDS011;61036;53.224;6.554;2023-01-24T01:05:31;23.77;;;15.20;;
72895;SDS011;61036;53.224;6.554;2023-01-24T01:07:57;24.10;;;15.57;;
72895;SDS011;61036;53.224;6.554;2023-01-24T01:10:22;22.07;;;15.17;;
72895;SDS011;61036;53.224;6.554;2023-01-24T01:12:49;22.60;;;16.03;;
72895;SDS011;61036;53.224;6.554;2023-01-24T01:15:14;25.53;;;16.93;;
72895;SDS011;61036;53.224;6.554;2023-01-24T01:17:40;23.80;;;16.03;;
72895;SDS011;61036;53.224;6.554;2023-01-24T01:20:06;24.27;;;15.90;;
72895;SDS011;61036;53.224;6.554;2023-01-24T01:22:32;23.23;;;15.63;;
72895;SDS011;61036;53.224;6.554;2023-01-24T01:24:57;23.80;;;16.03;;
72895;SDS011;61036;53.224;6.554;2023-01-24T01:27:24;23.10;;;15.73;;
72895;SDS011;61036;53.224;6.554;2023-01-24T01:29:50;23.13;;;15.83;;
72895;SDS011;61036;53.224;6.554;2023-01-24T01:32:15;24.20;;;15.10;;
72895;SDS011;61036;53.224;6.554;2023-01-24T01:34:41;21.73;;;15.47;;
72895;SDS011;61036;53.224;6.554;2023-01-24T01:37:07;23.87;;;15.73;;
72895;SDS011;61036;53.224;6.554;2023-01-24T01:39:32;24.40;;;16.23;;
72895;SDS011;61036;53.224;6.554;2023-01-24T01:41:58;25.47;;;16.00;;
72895;SDS011;61036;53.224;6.554;2023-01-24T01:44:25;22.47;;;15.30;;
72895;SDS011;61036;53.224;6.554;2023-01-24T01:47:17;24.80;;;15.50;;
72895;SDS011;61036;53.224;6.554;2023-01-24T01:49:49;26.10;;;16.83;;
72895;SDS011;61036;53.224;6.554;2023-01-24T01:52:19;24.53;;;16.63;;
72895;SDS011;61036;53.224;6.554;2023-01-24T01:54:50;27.70;;;17.10;;
72895;SDS011;61036;53.224;6.554;2023-01-24T01:57:21;27.47;;;17.77;;
72895;SDS011;61036;53.224;6.554;2023-01-24T01:59:55;25.37;;;16.77;;
72895;SDS011;61036;53.224;6.554;2023-01-24T02:02:24;25.43;;;16.80;;
72895;SDS011;61036;53.224;6.554;2023-01-24T02:04:55;26.63;;;17.30;;
72895;SDS011;61036;53.224;6.554;2023-01-24T02:07:38;22.83;;;15.40;;
72895;SDS011;61036;53.224;6.554;2023-01-24T02:10:26;31.13;;;18.40;;
72895;SDS011;61036;53.224;6.554;2023-01-24T02:13:15;28.63;;;18.60;;
72895;SDS011;61036;53.224;6.554;2023-01-24T02:15:42;26.87;;;17.37;;
72895;SDS011;61036;53.224;6.554;2023-01-24T02:18:31;25.03;;;16.83;;
72895;SDS011;61036;53.224;6.554;2023-01-24T02:20:59;27.93;;;18.20;;
72895;SDS011;61036;53.224;6.554;2023-01-24T02:26:12;25.40;;;16.87;;
72895;SDS011;61036;53.224;6.554;2023-01-24T02:28:45;28.67;;;17.30;;
72895;SDS011;61036;53.224;6.554;2023-01-24T02:31:20;27.13;;;17.70;;
72895;SDS011;61036;53.224;6.554;2023-01-24T02:33:46;27.00;;;16.70;;
72895;SDS011;61036;53.224;6.554;2023-01-24T02:39:00;23.73;;;15.87;;
72895;SDS011;61036;53.224;6.554;2023-01-24T02:41:31;27.17;;;17.37;;
72895;SDS011;61036;53.224;6.554;2023-01-24T02:44:07;25.40;;;17.07;;
72895;SDS011;61036;53.224;6.554;2023-01-24T02:46:36;25.87;;;16.53;;
72895;SDS011;61036;53.224;6.554;2023-01-24T02:49:06;22.93;;;15.37;;
72895;SDS011;61036;53.224;6.554;2023-01-24T02:51:34;25.70;;;17.50;;
72895;SDS011;61036;53.224;6.554;2023-01-24T02:54:18;25.67;;;17.53;;
72895;SDS011;61036;53.224;6.554;2023-01-24T02:56:44;25.93;;;17.70;;
72895;SDS011;61036;53.224;6.554;2023-01-24T02:59:28;22.33;;;15.80;;
72895;SDS011;61036;53.224;6.554;2023-01-24T03:01:54;21.77;;;14.97;;
72895;SDS011;61036;53.224;6.554;2023-01-24T03:04:20;26.97;;;17.17;;
72895;SDS011;61036;53.224;6.554;2023-01-24T03:06:46;23.57;;;16.20;;
72895;SDS011;61036;53.224;6.554;2023-01-24T03:09:14;26.20;;;16.33;;
72895;SDS011;61036;53.224;6.554;2023-01-24T03:11:48;21.97;;;15.13;;
72895;SDS011;61036;53.224;6.554;2023-01-24T03:14:15;20.77;;;14.53;;
72895;SDS011;61036;53.224;6.554;2023-01-24T03:17:00;22.67;;;14.73;;
72895;SDS011;61036;53.224;6.554;2023-01-24T03:19:44;22.93;;;15.60;;
72895;SDS011;61036;53.224;6.554;2023-01-24T03:22:29;23.80;;;15.27;;
72895;SDS011;61036;53.224;6.554;2023-01-24T03:25:14;20.90;;;13.83;;
72895;SDS011;61036;53.224;6.554;2023-01-24T03:28:02;24.63;;;16.00;;
72895;SDS011;61036;53.224;6.554;2023-01-24T03:30:48;22.67;;;15.03;;
72895;SDS011;61036;53.224;6.554;2023-01-24T03:33:34;23.40;;;15.67;;
72895;SDS011;61036;53.224;6.554;2023-01-24T03:36:20;24.10;;;15.00;;
72895;SDS011;61036;53.224;6.554;2023-01-24T03:38:52;20.20;;;13.27;;
72895;SDS011;61036;53.224;6.554;2023-01-24T03:41:37;23.10;;;15.53;;
72895;SDS011;61036;53.224;6.554;2023-01-24T03:44:03;18.93;;;13.73;;
72895;SDS011;61036;53.224;6.554;2023-01-24T03:46:29;19.03;;;13.43;;
72895;SDS011;61036;53.224;6.554;2023-01-24T03:48:56;21.37;;;13.27;;
72895;SDS011;61036;53.224;6.554;2023-01-24T03:51:29;22.50;;;15.33;;
72895;SDS011;61036;53.224;6.554;2023-01-24T03:54:14;24.97;;;15.87;;
72895;SDS011;61036;53.224;6.554;2023-01-24T03:56:53;22.63;;;15.07;;
72895;SDS011;61036;53.224;6.554;2023-01-24T03:59:21;23.87;;;16.30;;
72895;SDS011;61036;53.224;6.554;2023-01-24T04:01:46;24.60;;;17.07;;
72895;SDS011;61036;53.224;6.554;2023-01-24T04:04:19;27.07;;;17.30;;
72895;SDS011;61036;53.224;6.554;2023-01-24T04:06:46;25.03;;;16.50;;
72895;SDS011;61036;53.224;6.554;2023-01-24T04:09:13;26.40;;;16.40;;
72895;SDS011;61036;53.224;6.554;2023-01-24T04:11:41;21.83;;;15.53;;
72895;SDS011;61036;53.224;6.554;2023-01-24T04:14:11;26.27;;;17.53;;
72895;SDS011;61036;53.224;6.554;2023-01-24T04:16:50;22.93;;;16.03;;
72895;SDS011;61036;53.224;6.554;2023-01-24T04:19:19;24.03;;;15.63;;
72895;SDS011;61036;53.224;6.554;2023-01-24T04:21:45;20.77;;;14.43;;
72895;SDS011;61036;53.224;6.554;2023-01-24T04:24:13;24.47;;;16.17;;
72895;SDS011;61036;53.224;6.554;2023-01-24T04:26:41;20.07;;;13.57;;
72895;SDS011;61036;53.224;6.554;2023-01-24T04:29:13;17.67;;;12.53;;
72895;SDS011;61036;53.224;6.554;2023-01-24T04:31:39;17.93;;;12.20;;
72895;SDS011;61036;53.224;6.554;2023-01-24T04:34:38;18.73;;;13.40;;
72895;SDS011;61036;53.224;6.554;2023-01-24T04:37:07;19.97;;;13.37;;
72895;SDS011;61036;53.224;6.554;2023-01-24T04:39:34;18.27;;;13.20;;
72895;SDS011;61036;53.224;6.554;2023-01-24T04:42:09;19.03;;;12.90;;
72895;SDS011;61036;53.224;6.554;2023-01-24T04:44:37;17.50;;;12.80;;
72895;SDS011;61036;53.224;6.554;2023-01-24T04:47:02;19.67;;;13.50;;
72895;SDS011;61036;53.224;6.554;2023-01-24T04:49:30;17.83;;;13.00;;
72895;SDS011;61036;53.224;6.554;2023-01-24T04:51:56;18.97;;;13.47;;
72895;SDS011;61036;53.224;6.554;2023-01-24T04:54:28;19.40;;;12.93;;
72895;SDS011;61036;53.224;6.554;2023-01-24T04:56:54;18.87;;;12.90;;
72895;SDS011;61036;53.224;6.554;2023-01-24T04:59:21;20.77;;;13.70;;
72895;SDS011;61036;53.224;6.554;2023-01-24T05:01:48;20.50;;;14.73;;
72895;SDS011;61036;53.224;6.554;2023-01-24T05:04:34;24.33;;;16.20;;
72895;SDS011;61036;53.224;6.554;2023-01-24T05:07:01;27.27;;;18.30;;
72895;SDS011;61036;53.224;6.554;2023-01-24T05:09:27;27.20;;;17.53;;
72895;SDS011;61036;53.224;6.554;2023-01-24T05:11:58;23.43;;;16.17;;
72895;SDS011;61036;53.224;6.554;2023-01-24T05:14:25;21.57;;;15.13;;
72895;SDS011;61036;53.224;6.554;2023-01-24T05:16:52;20.23;;;14.00;;
72895;SDS011;61036;53.224;6.554;2023-01-24T05:19:18;22.50;;;15.53;;
72895;SDS011;61036;53.224;6.554;2023-01-24T05:21:44;20.13;;;14.40;;
72895;SDS011;61036;53.224;6.554;2023-01-24T05:24:09;20.80;;;14.07;;
72895;SDS011;61036;53.224;6.554;2023-01-24T05:26:36;21.27;;;15.40;;
72895;SDS011;61036;53.224;6.554;2023-01-24T05:29:02;21.57;;;14.73;;
72895;SDS011;61036;53.224;6.554;2023-01-24T05:31:29;21.30;;;14.50;;
72895;SDS011;61036;53.224;6.554;2023-01-24T05:33:58;18.33;;;12.80;;
72895;SDS011;61036;53.224;6.554;2023-01-24T05:36:23;19.70;;;14.70;;
72895;SDS011;61036;53.224;6.554;2023-01-24T05:38:52;19.97;;;14.93;;
72895;SDS011;61036;53.224;6.554;2023-01-24T05:41:19;19.57;;;14.70;;
72895;SDS011;61036;53.224;6.554;2023-01-24T05:43:48;22.00;;;15.10;;
72895;SDS011;61036;53.224;6.554;2023-01-24T05:46:15;22.63;;;16.00;;
72895;SDS011;61036;53.224;6.554;2023-01-24T05:48:52;24.37;;;16.43;;
72895;SDS011;61036;53.224;6.554;2023-01-24T05:51:18;22.40;;;15.77;;
72895;SDS011;61036;53.224;6.554;2023-01-24T05:53:46;23.97;;;15.63;;
72895;SDS011;61036;53.224;6.554;2023-01-24T05:56:17;21.97;;;15.13;;
72895;SDS011;61036;53.224;6.554;2023-01-24T05:58:46;23.47;;;15.47;;
72895;SDS011;61036;53.224;6.554;2023-01-24T06:01:19;22.43;;;14.87;;
72895;SDS011;61036;53.224;6.554;2023-01-24T06:03:47;23.53;;;15.73;;
72895;SDS011;61036;53.224;6.554;2023-01-24T06:06:18;24.60;;;16.40;;
72895;SDS011;61036;53.224;6.554;2023-01-24T06:08:47;24.57;;;16.50;;
72895;SDS011;61036;53.224;6.554;2023-01-24T06:11:18;23.20;;;15.20;;
72895;SDS011;61036;53.224;6.554;2023-01-24T06:13:46;23.00;;;15.43;;
72895;SDS011;61036;53.224;6.554;2023-01-24T06:16:13;23.43;;;16.20;;
72895;SDS011;61036;53.224;6.554;2023-01-24T06:18:43;23.37;;;16.30;;
72895;SDS011;61036;53.224;6.554;2023-01-24T06:23:59;22.50;;;15.40;;
72895;SDS011;61036;53.224;6.554;2023-01-24T06:26:36;20.80;;;14.77;;
72895;SDS011;61036;53.224;6.554;2023-01-24T06:29:02;22.10;;;15.63;;
72895;SDS011;61036;53.224;6.554;2023-01-24T06:31:32;22.37;;;15.27;;
72895;SDS011;61036;53.224;6.554;2023-01-24T06:39:01;21.77;;;16.23;;
72895;SDS011;61036;53.224;6.554;2023-01-24T06:41:27;24.77;;;17.10;;
72895;SDS011;61036;53.224;6.554;2023-01-24T06:43:53;25.47;;;17.70;;
72895;SDS011;61036;53.224;6.554;2023-01-24T06:46:18;26.10;;;17.70;;
72895;SDS011;61036;53.224;6.554;2023-01-24T06:48:44;24.87;;;16.83;;
72895;SDS011;61036;53.224;6.554;2023-01-24T06:51:13;27.60;;;17.30;;
72895;SDS011;61036;53.224;6.554;2023-01-24T06:53:42;26.43;;;16.87;;
72895;SDS011;61036;53.224;6.554;2023-01-24T06:56:08;25.47;;;17.30;;
72895;SDS011;61036;53.224;6.554;2023-01-24T06:58:34;28.50;;;17.87;;
72895;SDS011;61036;53.224;6.554;2023-01-24T07:00:59;26.03;;;18.67;;
72895;SDS011;61036;53.224;6.554;2023-01-24T07:03:25;27.00;;;18.00;;
72895;SDS011;61036;53.224;6.554;2023-01-24T07:05:51;25.67;;;17.27;;
72895;SDS011;61036;53.224;6.554;2023-01-24T07:08:17;24.53;;;18.00;;
72895;SDS011;61036;53.224;6.554;2023-01-24T07:10:46;30.13;;;24.13;;
72895;SDS011;61036;53.224;6.554;2023-01-24T07:13:12;27.53;;;18.60;;
72895;SDS011;61036;53.224;6.554;2023-01-24T07:15:37;25.40;;;17.07;;
72895;SDS011;61036;53.224;6.554;2023-01-24T07:18:04;24.73;;;17.77;;
72895;SDS011;61036;53.224;6.554;2023-01-24T07:20:31;30.87;;;18.70;;
72895;SDS011;61036;53.224;6.554;2023-01-24T07:22:56;28.83;;;19.30;;
72895;SDS011;61036;53.224;6.554;2023-01-24T07:25:22;30.20;;;20.20;;
72895;SDS011;61036;53.224;6.554;2023-01-24T07:27:49;25.77;;;17.67;;
72895;SDS011;61036;53.224;6.554;2023-01-24T07:30:14;27.00;;;17.73;;
72895;SDS011;61036;53.224;6.554;2023-01-24T07:32:41;23.20;;;15.83;;
72895;SDS011;61036;53.224;6.554;2023-01-24T07:35:08;21.30;;;15.83;;
72895;SDS011;61036;53.224;6.554;2023-01-24T07:37:34;21.97;;;15.07;;
72895;SDS011;61036;53.224;6.554;2023-01-24T07:39:59;23.10;;;14.20;;
72895;SDS011;61036;53.224;6.554;2023-01-24T07:42:25;21.60;;;13.53;;
72895;SDS011;61036;53.224;6.554;2023-01-24T07:44:52;22.40;;;15.23;;
72895;SDS011;61036;53.224;6.554;2023-01-24T07:47:19;18.73;;;13.30;;
72895;SDS011;61036;53.224;6.554;2023-01-24T07:49:45;22.77;;;14.97;;
72895;SDS011;61036;53.224;6.554;2023-01-24T07:52:11;21.40;;;14.03;;
72895;SDS011;61036;53.224;6.554;2023-01-24T07:54:38;20.30;;;14.20;;
72895;SDS011;61036;53.224;6.554;2023-01-24T07:57:04;21.60;;;14.60;;
72895;SDS011;61036;53.224;6.554;2023-01-24T07:59:31;18.17;;;14.00;;
72895;SDS011;61036;53.224;6.554;2023-01-24T08:01:59;17.60;;;13.67;;
72895;SDS011;61036;53.224;6.554;2023-01-24T08:04:25;20.33;;;13.53;;
72895;SDS011;61036;53.224;6.554;2023-01-24T08:06:51;19.57;;;13.67;;
72895;SDS011;61036;53.224;6.554;2023-01-24T08:09:35;17.90;;;12.57;;
72895;SDS011;61036;53.224;6.554;2023-01-24T08:12:01;19.33;;;12.87;;
72895;SDS011;61036;53.224;6.554;2023-01-24T08:14:27;17.60;;;12.27;;
72895;SDS011;61036;53.224;6.554;2023-01-24T08:16:54;17.90;;;11.73;;
72895;SDS011;61036;53.224;6.554;2023-01-24T08:19:20;16.20;;;11.47;;
72895;SDS011;61036;53.224;6.554;2023-01-24T08:21:46;18.70;;;12.37;;
72895;SDS011;61036;53.224;6.554;2023-01-24T08:24:11;16.73;;;11.23;;
72895;SDS011;61036;53.224;6.554;2023-01-24T08:26:37;18.13;;;11.87;;
72895;SDS011;61036;53.224;6.554;2023-01-24T08:29:02;19.23;;;12.60;;
72895;SDS011;61036;53.224;6.554;2023-01-24T08:31:28;17.63;;;12.03;;
72895;SDS011;61036;53.224;6.554;2023-01-24T08:33:54;18.07;;;12.43;;
72895;SDS011;61036;53.224;6.554;2023-01-24T08:36:20;15.97;;;10.37;;
72895;SDS011;61036;53.224;6.554;2023-01-24T08:38:46;17.97;;;12.10;;
72895;SDS011;61036;53.224;6.554;2023-01-24T08:41:12;18.50;;;11.80;;
72895;SDS011;61036;53.224;6.554;2023-01-24T08:43:38;16.73;;;11.80;;
72895;SDS011;61036;53.224;6.554;2023-01-24T08:46:04;18.27;;;11.73;;
72895;SDS011;61036;53.224;6.554;2023-01-24T08:48:32;19.00;;;12.17;;
72895;SDS011;61036;53.224;6.554;2023-01-24T08:51:02;17.67;;;12.13;;
72895;SDS011;61036;53.224;6.554;2023-01-24T08:53:28;18.07;;;12.10;;
72895;SDS011;61036;53.224;6.554;2023-01-24T08:55:54;17.23;;;11.50;;
72895;SDS011;61036;53.224;6.554;2023-01-24T08:58:20;17.33;;;11.70;;
72895;SDS011;61036;53.224;6.554;2023-01-24T09:00:46;18.20;;;12.70;;
72895;SDS011;61036;53.224;6.554;2023-01-24T09:03:12;16.67;;;12.07;;
72895;SDS011;61036;53.224;6.554;2023-01-24T09:05:41;18.23;;;11.87;;
72895;SDS011;61036;53.224;6.554;2023-01-24T09:08:08;19.00;;;12.17;;
72895;SDS011;61036;53.224;6.554;2023-01-24T09:10:36;16.80;;;11.47;;
72895;SDS011;61036;53.224;6.554;2023-01-24T09:13:04;15.70;;;10.83;;
72895;SDS011;61036;53.224;6.554;2023-01-24T09:15:30;16.27;;;10.67;;
72895;SDS011;61036;53.224;6.554;2023-01-24T09:17:56;15.67;;;10.83;;
72895;SDS011;61036;53.224;6.554;2023-01-24T09:20:26;18.13;;;11.47;;
72895;SDS011;61036;53.224;6.554;2023-01-24T09:22:51;16.30;;;10.97;;
72895;SDS011;61036;53.224;6.554;2023-01-24T09:25:17;15.67;;;10.43;;
72895;SDS011;61036;53.224;6.554;2023-01-24T09:27:43;16.53;;;10.10;;
72895;SDS011;61036;53.224;6.554;2023-01-24T09:30:11;15.37;;;10.73;;
72895;SDS011;61036;53.224;6.554;2023-01-24T09:32:37;18.87;;;12.50;;
72895;SDS011;61036;53.224;6.554;2023-01-24T09:35:03;16.97;;;11.10;;
72895;SDS011;61036;53.224;6.554;2023-01-24T09:37:32;18.17;;;11.77;;
72895;SDS011;61036;53.224;6.554;2023-01-24T09:39:58;15.77;;;10.57;;
72895;SDS011;61036;53.224;6.554;2023-01-24T09:45:14;15.07;;;10.57;;
72895;SDS011;61036;53.224;6.554;2023-01-24T09:47:53;14.57;;;10.23;;
72895;SDS011;61036;53.224;6.554;2023-01-24T09:53:03;15.23;;;10.60;;
72895;SDS011;61036;53.224;6.554;2023-01-24T09:55:36;15.83;;;9.80;;
72895;SDS011;61036;53.224;6.554;2023-01-24T09:58:11;15.97;;;10.37;;
72895;SDS011;61036;53.224;6.554;2023-01-24T10:01:03;15.27;;;10.03;;
72895;SDS011;61036;53.224;6.554;2023-01-24T10:03:31;15.60;;;10.20;;
72895;SDS011;61036;53.224;6.554;2023-01-24T10:06:06;15.43;;;10.30;;
72895;SDS011;61036;53.224;6.554;2023-01-24T10:09:03;17.97;;;10.87;;
72895;SDS011;61036;53.224;6.554;2023-01-24T10:22:50;13.73;;;9.60;;
72895;SDS011;61036;53.224;6.554;2023-01-24T10:25:28;14.87;;;9.57;;
72895;SDS011;61036;53.224;6.554;2023-01-24T10:33:27;15.80;;;10.77;;
72895;SDS011;61036;53.224;6.554;2023-01-24T10:36:03;13.70;;;9.63;;
72895;SDS011;61036;53.224;6.554;2023-01-24T10:38:33;14.60;;;9.67;;
72895;SDS011;61036;53.224;6.554;2023-01-24T10:41:21;14.17;;;10.40;;
72895;SDS011;61036;53.224;6.554;2023-01-24T10:43:54;14.07;;;9.67;;
72895;SDS011;61036;53.224;6.554;2023-01-24T10:49:00;15.50;;;10.00;;
72895;SDS011;61036;53.224;6.554;2023-01-24T10:51:30;14.53;;;9.87;;
72895;SDS011;61036;53.224;6.554;2023-01-24T10:54:02;16.00;;;10.53;;
72895;SDS011;61036;53.224;6.554;2023-01-24T10:56:27;16.40;;;10.60;;
72895;SDS011;61036;53.224;6.554;2023-01-24T10:59:03;17.23;;;10.90;;
72895;SDS011;61036;53.224;6.554;2023-01-24T11:01:35;14.57;;;10.00;;
72895;SDS011;61036;53.224;6.554;2023-01-24T11:04:12;17.23;;;10.97;;
72895;SDS011;61036;53.224;6.554;2023-01-24T11:06:45;14.93;;;10.07;;
72895;SDS011;61036;53.224;6.554;2023-01-24T11:09:14;16.70;;;10.30;;
72895;SDS011;61036;53.224;6.554;2023-01-24T11:11:46;15.63;;;10.33;;
72895;SDS011;61036;53.224;6.554;2023-01-24T11:14:20;15.10;;;10.60;;
72895;SDS011;61036;53.224;6.554;2023-01-24T11:16:48;14.97;;;10.00;;
72895;SDS011;61036;53.224;6.554;2023-01-24T11:19:35;15.57;;;10.80;;
72895;SDS011;61036;53.224;6.554;2023-01-24T11:22:27;17.33;;;10.90;;
72895;SDS011;61036;53.224;6.554;2023-01-24T11:25:03;15.73;;;10.33;;
72895;SDS011;61036;53.224;6.554;2023-01-24T11:27:48;15.00;;;10.67;;
72895;SDS011;61036;53.224;6.554;2023-01-24T11:30:19;16.73;;;10.53;;
72895;SDS011;61036;53.224;6.554;2023-01-24T11:35:33;16.90;;;10.50;;
72895;SDS011;61036;53.224;6.554;2023-01-24T11:47:08;19.47;;;12.20;;
72895;SDS011;61036;53.224;6.554;2023-01-24T11:52:41;16.97;;;10.93;;
72895;SDS011;61036;53.224;6.554;2023-01-24T12:03:48;15.50;;;9.93;;
72895;SDS011;61036;53.224;6.554;2023-01-24T12:06:48;15.13;;;10.40;;
72895;SDS011;61036;53.224;6.554;2023-01-24T12:09:38;15.17;;;9.20;;
72895;SDS011;61036;53.224;6.554;2023-01-24T12:21:06;14.57;;;10.63;;
72895;SDS011;61036;53.224;6.554;2023-01-24T12:26:10;15.47;;;10.03;;
72895;SDS011;61036;53.224;6.554;2023-01-24T12:31:17;16.43;;;11.20;;
72895;SDS011;61036;53.224;6.554;2023-01-24T12:33:53;17.50;;;11.90;;
72895;SDS011;61036;53.224;6.554;2023-01-24T12:36:29;19.47;;;11.70;;
72895;SDS011;61036;53.224;6.554;2023-01-24T12:39:02;17.93;;;11.63;;
72895;SDS011;61036;53.224;6.554;2023-01-24T12:41:40;17.93;;;11.53;;
72895;SDS011;61036;53.224;6.554;2023-01-24T12:44:26;17.90;;;11.50;;
72895;SDS011;61036;53.224;6.554;2023-01-24T12:50:24;17.73;;;11.37;;
72895;SDS011;61036;53.224;6.554;2023-01-24T12:57:42;19.87;;;12.60;;
72895;SDS011;61036;53.224;6.554;2023-01-24T13:00:22;16.67;;;11.53;;
72895;SDS011;61036;53.224;6.554;2023-01-24T13:05:23;17.07;;;11.47;;
72895;SDS011;61036;53.224;6.554;2023-01-24T13:13:36;16.97;;;12.23;;
72895;SDS011;61036;53.224;6.554;2023-01-24T13:30:34;19.10;;;12.50;;
72895;SDS011;61036;53.224;6.554;2023-01-24T13:33:11;17.73;;;11.73;;
72895;SDS011;61036;53.224;6.554;2023-01-24T13:35:50;19.03;;;11.23;;
72895;SDS011;61036;53.224;6.554;2023-01-24T13:38:24;19.57;;;11.50;;
72895;SDS011;61036;53.224;6.554;2023-01-24T13:41:02;18.73;;;12.80;;
72895;SDS011;61036;53.224;6.554;2023-01-24T13:46:00;24.50;;;13.17;;
72895;SDS011;61036;53.224;6.554;2023-01-24T13:48:53;18.93;;;12.53;;
72895;SDS011;61036;53.224;6.554;2023-01-24T13:51:21;21.03;;;12.90;;
72895;SDS011;61036;53.224;6.554;2023-01-24T13:56:26;20.80;;;13.60;;
72895;SDS011;61036;53.224;6.554;2023-01-24T13:58:52;21.83;;;16.10;;
72895;SDS011;61036;53.224;6.554;2023-01-24T14:01:20;23.83;;;13.40;;
72895;SDS011;61036;53.224;6.554;2023-01-24T14:03:57;19.23;;;12.90;;
72895;SDS011;61036;53.224;6.554;2023-01-24T14:06:25;18.87;;;12.93;;
72895;SDS011;61036;53.224;6.554;2023-01-24T14:09:03;19.83;;;13.17;;
72895;SDS011;61036;53.224;6.554;2023-01-24T14:11:51;19.00;;;13.37;;
72895;SDS011;61036;53.224;6.554;2023-01-24T14:14:25;18.90;;;12.33;;
72895;SDS011;61036;53.224;6.554;2023-01-24T14:19:20;21.60;;;13.20;;
72895;SDS011;61036;53.224;6.554;2023-01-24T14:27:18;20.90;;;13.67;;
72895;SDS011;61036;53.224;6.554;2023-01-24T14:29:48;21.30;;;14.00;;
72895;SDS011;61036;53.224;6.554;2023-01-24T14:32:52;19.67;;;14.40;;
72895;SDS011;61036;53.224;6.554;2023-01-24T14:35:18;22.77;;;13.90;;
72895;SDS011;61036;53.224;6.554;2023-01-24T14:37:49;24.97;;;15.73;;
72895;SDS011;61036;53.224;6.554;2023-01-24T14:40:20;21.10;;;14.43;;
72895;SDS011;61036;53.224;6.554;2023-01-24T14:42:49;19.87;;;14.40;;
72895;SDS011;61036;53.224;6.554;2023-01-24T14:45:17;20.63;;;14.17;;
72895;SDS011;61036;53.224;6.554;2023-01-24T14:47:47;19.73;;;13.80;;
72895;SDS011;61036;53.224;6.554;2023-01-24T14:50:39;25.60;;;16.60;;
72895;SDS011;61036;53.224;6.554;2023-01-24T14:55:55;23.53;;;15.00;;
72895;SDS011;61036;53.224;6.554;2023-01-24T14:58:26;22.13;;;15.60;;
72895;SDS011;61036;53.224;6.554;2023-01-24T15:00:55;23.63;;;14.20;;
72895;SDS011;61036;53.224;6.554;2023-01-24T15:03:25;20.73;;;15.10;;
72895;SDS011;61036;53.224;6.554;2023-01-24T15:05:55;23.03;;;16.07;;
72895;SDS011;61036;53.224;6.554;2023-01-24T15:08:35;20.93;;;14.83;;
72895;SDS011;61036;53.224;6.554;2023-01-24T15:11:05;23.53;;;15.80;;
72895;SDS011;61036;53.224;6.554;2023-01-24T15:13:43;22.27;;;15.60;;
72895;SDS011;61036;53.224;6.554;2023-01-24T15:16:19;24.13;;;16.77;;
72895;SDS011;61036;53.224;6.554;2023-01-24T15:19:04;26.00;;;15.80;;
72895;SDS011;61036;53.224;6.554;2023-01-24T15:21:50;24.60;;;17.03;;
72895;SDS011;61036;53.224;6.554;2023-01-24T15:24:19;24.07;;;16.53;;
72895;SDS011;61036;53.224;6.554;2023-01-24T15:26:48;24.57;;;17.00;;
72895;SDS011;61036;53.224;6.554;2023-01-24T15:40:35;28.37;;;18.03;;
72895;SDS011;61036;53.224;6.554;2023-01-24T15:43:15;27.03;;;18.13;;
72895;SDS011;61036;53.224;6.554;2023-01-24T15:46:05;34.67;;;23.77;;
72895;SDS011;61036;53.224;6.554;2023-01-24T15:49:02;23.77;;;16.90;;
72895;SDS011;61036;53.224;6.554;2023-01-24T15:51:38;25.43;;;17.60;;
72895;SDS011;61036;53.224;6.554;2023-01-24T15:54:10;22.93;;;15.80;;
72895;SDS011;61036;53.224;6.554;2023-01-24T15:56:37;27.50;;;18.33;;
72895;SDS011;61036;53.224;6.554;2023-01-24T15:59:15;27.00;;;17.73;;
72895;SDS011;61036;53.224;6.554;2023-01-24T16:01:43;25.43;;;18.40;;
72895;SDS011;61036;53.224;6.554;2023-01-24T16:04:10;28.07;;;18.10;;
72895;SDS011;61036;53.224;6.554;2023-01-24T16:06:39;24.73;;;17.20;;
72895;SDS011;61036;53.224;6.554;2023-01-24T16:09:04;25.83;;;17.77;;
72895;SDS011;61036;53.224;6.554;2023-01-24T16:11:31;27.43;;;18.57;;
72895;SDS011;61036;53.224;6.554;2023-01-24T16:13:57;27.43;;;18.60;;
72895;SDS011;61036;53.224;6.554;2023-01-24T16:16:25;23.00;;;17.07;;
72895;SDS011;61036;53.224;6.554;2023-01-24T16:18:51;26.13;;;18.00;;
72895;SDS011;61036;53.224;6.554;2023-01-24T16:21:19;25.80;;;17.47;;
72895;SDS011;61036;53.224;6.554;2023-01-24T16:23:45;27.30;;;18.50;;
72895;SDS011;61036;53.224;6.554;2023-01-24T16:26:17;29.20;;;18.03;;
72895;SDS011;61036;53.224;6.554;2023-01-24T16:28:46;24.80;;;17.67;;
72895;SDS011;61036;53.224;6.554;2023-01-24T16:31:11;27.53;;;18.83;;
72895;SDS011;61036;53.224;6.554;2023-01-24T16:33:38;31.70;;;19.83;;
72895;SDS011;61036;53.224;6.554;2023-01-24T16:36:04;27.70;;;19.20;;
72895;SDS011;61036;53.224;6.554;2023-01-24T16:38:30;30.07;;;19.83;;
72895;SDS011;61036;53.224;6.554;2023-01-24T16:40:55;25.30;;;17.93;;
72895;SDS011;61036;53.224;6.554;2023-01-24T16:43:21;26.33;;;18.27;;
72895;SDS011;61036;53.224;6.554;2023-01-24T16:45:49;25.20;;;17.90;;
72895;SDS011;61036;53.224;6.554;2023-01-24T16:48:16;24.60;;;17.23;;
72895;SDS011;61036;53.224;6.554;2023-01-24T16:50:45;27.17;;;18.73;;
72895;SDS011;61036;53.224;6.554;2023-01-24T16:53:11;25.50;;;17.03;;
72895;SDS011;61036;53.224;6.554;2023-01-24T16:55:38;49.00;;;32.50;;
72895;SDS011;61036;53.224;6.554;2023-01-24T16:58:05;26.47;;;19.50;;
72895;SDS011;61036;53.224;6.554;2023-01-24T17:00:31;24.13;;;16.73;;